Time;durP1;ratioP1;P1;durP2;ratioP2;P2;SDS_P1;SDS_P2;PMS_P1;PMS_P2;Temp;Humidity;BMP_temperature;BMP_pressure;BME280_temperature;BME280_humidity;BME280_pressure;Samples;Min_cycle;Max_cycle;Signal;HPM_P1;HPM_P2
2021/07/12 00:00:45;;;;;;;14.48;12.00;;;;;;;20.66;68.67;100154.22;5092487;28;20521;-64
2021/07/12 00:03:12;;;;;;;12.60;11.27;;;;;;;20.72;68.34;100151.88;5095424;28;20488;-64
2021/07/12 00:05:41;;;;;;;13.45;12.02;;;;;;;20.71;68.48;100151.06;5095100;28;20055;-64
2021/07/12 00:08:09;;;;;;;13.55;11.63;;;;;;;20.68;68.40;100146.16;5094717;28;20067;-64
2021/07/12 00:10:37;;;;;;;14.55;12.48;;;;;;;20.62;68.74;100147.72;5094925;28;20055;-64
2021/07/12 00:13:05;;;;;;;14.23;12.70;;;;;;;20.56;69.04;100147.25;5094403;28;20052;-64
2021/07/12 00:15:33;;;;;;;14.18;12.77;;;;;;;20.49;69.09;100138.69;5094003;28;20055;-64
2021/07/12 00:18:01;;;;;;;14.50;12.98;;;;;;;20.44;69.42;100144.72;5094292;28;20235;-64
2021/07/12 00:20:28;;;;;;;14.77;12.93;;;;;;;20.40;69.34;100139.03;5094238;28;20052;-64
2021/07/12 00:22:57;;;;;;;13.43;12.13;;;;;;;20.31;69.27;100138.53;5094381;28;20075;-64
2021/07/12 00:25:29;;;;;;;13.40;12.10;;;;;;;20.22;69.33;100130.38;5094017;28;20056;-64
2021/07/12 00:27:57;;;;;;;13.65;11.50;;;;;;;20.18;69.12;100135.19;5093719;28;20052;-64
2021/07/12 00:30:25;;;;;;;16.35;12.70;;;;;;;20.11;69.34;100128.63;5094041;28;20056;-64
2021/07/12 00:32:55;;;;;;;13.93;12.43;;;;;;;20.03;69.87;100127.72;5093925;28;20063;-64
2021/07/12 00:35:24;;;;;;;15.48;13.10;;;;;;;19.97;70.02;100121.63;5092854;28;20059;-64
2021/07/12 00:37:55;;;;;;;14.18;12.68;;;;;;;19.91;70.08;100123.19;5093966;28;20520;-64
2021/07/12 00:40:24;;;;;;;15.05;12.88;;;;;;;19.89;70.21;100116.28;5093865;28;20059;-64
2021/07/12 00:42:53;;;;;;;;;;;;;;;19.76;70.28;100127.00;5094757;28;20058;-64
2021/07/12 00:45:24;;;;;;;15.05;13.52;;;;;;;19.67;70.61;100118.81;5093226;28;20373;-64
2021/07/12 00:47:53;;;;;;;16.33;13.57;;;;;;;19.59;70.97;100115.09;5093936;28;20412;-64
2021/07/12 00:50:22;;;;;;;15.85;14.15;;;;;;;19.55;71.13;100110.59;5093588;28;20056;-64
2021/07/12 00:52:53;;;;;;;16.75;14.43;;;;;;;19.49;71.03;100121.44;5093568;28;20511;-64
2021/07/12 00:55:23;;;;;;;18.80;15.32;;;;;;;19.42;71.38;100122.16;5093238;28;20047;-64
2021/07/12 00:57:51;;;;;;;17.10;15.30;;;;;;;19.38;71.45;100121.28;5093787;28;20489;-64
2021/07/12 01:00:22;;;;;;;17.52;15.00;;;;;;;19.36;71.82;100117.19;5093523;28;20052;-64
2021/07/12 01:02:51;;;;;;;16.65;14.95;;;;;;;19.34;71.49;100108.31;5093529;28;20055;-64
2021/07/12 01:05:21;;;;;;;21.33;14.77;;;;;;;19.25;72.04;100102.94;5091945;28;20385;-64
2021/07/12 01:07:48;;;;;;;17.13;14.68;;;;;;;19.19;71.80;100108.13;5093971;28;20055;-64
2021/07/12 01:10:17;;;;;;;17.17;14.00;;;;;;;19.11;72.14;100099.91;5093697;28;20063;-64
2021/07/12 01:12:55;;;;;;;16.92;13.98;;;;;;;19.02;71.87;100103.03;5091444;28;20052;-64
2021/07/12 01:15:27;;;;;;;16.77;14.13;;;;;;;18.95;72.17;100106.56;5093330;28;20051;-64
2021/07/12 01:18:03;;;;;;;17.35;15.65;;;;;;;18.90;72.34;100106.06;5093651;28;20815;-64
2021/07/12 01:21:02;;;;;;;17.70;14.77;;;;;;;18.83;72.30;100106.78;5093525;28;20080;-64
2021/07/12 01:23:40;;;;;;;18.55;15.32;;;;;;;18.80;72.50;100108.34;5092771;28;20090;-64
2021/07/12 01:26:42;;;;;;;18.05;14.25;;;;;;;18.75;72.31;100096.53;5079231;28;20488;-64
2021/07/12 01:29:27;;;;;;;16.70;13.77;;;;;;;18.69;72.32;100098.06;5076310;28;20461;-64
2021/07/12 01:32:39;;;;;;;16.00;13.82;;;;;;;18.62;72.57;100101.56;5092964;28;20358;-64
2021/07/12 01:35:16;;;;;;;17.10;14.25;;;;;;;18.55;72.62;100105.09;5058047;28;20526;-64
2021/07/12 01:37:54;;;;;;;18.83;14.68;;;;;;;18.47;72.96;100100.53;5092927;28;20063;-64
2021/07/12 01:40:32;;;;;;;19.73;16.00;;;;;;;18.43;72.71;100106.09;5093077;28;20052;-64
2021/07/12 01:43:07;;;;;;;19.65;16.85;;;;;;;18.38;73.26;100103.59;5092924;28;20056;-64
2021/07/12 01:45:46;;;;;;;19.85;15.32;;;;;;;18.35;73.29;100100.72;5092525;28;20142;-64
2021/07/12 01:48:23;;;;;;;16.98;14.95;;;;;;;18.33;73.64;100097.47;5092874;28;20056;-64
2021/07/12 01:50:57;;;;;;;17.25;14.35;;;;;;;18.26;73.36;100096.16;5092645;28;20060;-64
2021/07/12 01:53:31;;;;;;;20.58;16.02;;;;;;;18.22;73.67;100092.44;5092626;28;20056;-64
2021/07/12 01:56:04;;;;;;;19.45;16.10;;;;;;;18.19;73.88;100093.22;5087732;28;20048;-64
2021/07/12 01:58:38;;;;;;;20.30;16.38;;;;;;;18.19;74.24;100095.22;5083229;28;20067;-64
2021/07/12 02:01:10;;;;;;;20.25;16.60;;;;;;;18.20;74.21;100092.00;5072768;28;20507;-64
2021/07/12 02:03:38;;;;;;;18.17;15.10;;;;;;;18.19;74.47;100089.59;5073421;28;20059;-64
2021/07/12 02:06:10;;;;;;;20.05;15.68;;;;;;;18.18;74.15;100088.75;5092355;28;20078;-64
2021/07/12 02:08:44;;;;;;;16.67;14.52;;;;;;;18.11;74.67;100083.00;5092784;28;20060;-64
2021/07/12 02:11:13;;;;;;;17.70;15.02;;;;;;;18.13;74.30;100077.00;5092497;28;20052;-64
2021/07/12 02:13:41;;;;;;;15.70;14.10;;;;;;;18.14;74.21;100072.97;5092164;28;20060;-64
2021/07/12 02:16:11;;;;;;;18.27;14.73;;;;;;;18.07;74.15;100068.03;5093541;28;20060;-64
2021/07/12 02:18:39;;;;;;;19.83;15.30;;;;;;;18.07;73.98;100076.47;5097120;28;20067;-64
2021/07/12 02:21:08;;;;;;;16.23;13.85;;;;;;;18.08;73.81;100083.75;5096500;28;20477;-64
2021/07/12 02:23:37;;;;;;;17.52;13.82;;;;;;;18.08;73.81;100069.66;5096138;28;20492;-64
2021/07/12 02:26:05;;;;;;;17.05;14.77;;;;;;;18.08;73.69;100066.84;5096498;28;20512;-64
2021/07/12 02:28:33;;;;;;;15.70;13.13;;;;;;;18.04;73.83;100061.13;5096366;28;20411;-64
2021/07/12 02:31:01;;;;;;;15.50;13.40;;;;;;;18.04;73.81;100068.78;5096549;28;20063;-64
2021/07/12 02:33:29;;;;;;;16.88;14.43;;;;;;;17.98;74.06;100067.47;5095717;28;20055;-64
2021/07/12 02:35:57;;;;;;;18.60;13.95;;;;;;;17.96;74.31;100065.00;5096164;28;20079;-64
2021/07/12 02:38:27;;;;;;;17.70;13.57;;;;;;;17.94;74.32;100058.13;5096751;28;20060;-64
2021/07/12 02:40:54;;;;;;;18.25;13.25;;;;;;;17.94;74.03;100066.59;5096426;28;20060;-64
2021/07/12 02:43:23;;;;;;;18.55;13.02;;;;;;;17.95;73.99;100057.72;5096073;28;20056;-64
2021/07/12 02:45:52;;;;;;;17.25;14.02;;;;;;;17.93;74.16;100042.41;5095999;28;20516;-64
2021/07/12 02:48:19;;;;;;;17.83;14.15;;;;;;;17.91;73.94;100042.78;5095986;28;20052;-64
2021/07/12 02:50:50;;;;;;;16.73;14.93;;;;;;;17.87;74.47;100052.34;5095996;28;20063;-64
2021/07/12 02:53:22;;;;;;;25.50;16.65;;;;;;;17.87;74.38;100047.56;5095983;28;20052;-64
2021/07/12 02:55:51;;;;;;;20.27;16.17;;;;;;;17.85;74.38;100052.75;5092419;28;20095;-64
2021/07/12 02:58:18;;;;;;;19.58;16.05;;;;;;;17.82;74.54;100043.00;5075702;28;20053;-64
2021/07/12 03:00:46;;;;;;;23.05;16.23;;;;;;;17.80;74.66;100044.56;5092912;28;20066;-64
2021/07/12 03:03:13;;;;;;;22.23;16.92;;;;;;;17.79;74.93;100046.56;5096027;28;20063;-64
2021/07/12 03:05:41;;;;;;;20.92;14.82;;;;;;;17.76;74.50;100047.28;5095389;28;20056;-64
2021/07/12 03:08:12;;;;;;;19.83;13.95;;;;;;;17.75;74.32;100042.06;5096193;28;20052;-64
2021/07/12 03:10:48;;;;;;;19.25;15.48;;;;;;;17.70;74.23;100045.16;5095467;28;20056;-63
2021/07/12 03:13:23;;;;;;;23.90;17.45;;;;;;;17.64;74.64;100045.47;5095673;28;20405;-63
2021/07/12 03:15:51;;;;;;;22.08;16.02;;;;;;;17.64;74.56;100042.66;5095572;28;20047;-63
2021/07/12 03:18:22;;;;;;;20.52;15.80;;;;;;;17.65;74.63;100043.47;5095396;28;20052;-63
2021/07/12 03:20:51;;;;;;;21.15;15.98;;;;;;;17.64;74.32;100030.59;5095348;28;20067;-63
2021/07/12 03:23:19;;;;;;;18.92;16.10;;;;;;;17.64;74.06;100031.41;5095500;28;20062;-63
2021/07/12 03:25:51;;;;;;;22.73;16.98;;;;;;;17.63;74.05;100028.94;5095999;28;20056;-63
2021/07/12 03:28:21;;;;;;;19.08;15.65;;;;;;;17.63;74.08;100023.31;5094361;28;20048;-65
2021/07/12 03:30:49;;;;;;;19.35;15.35;;;;;;;17.61;74.25;100026.50;5095093;28;20056;-63
2021/07/12 03:33:20;;;;;;;22.88;17.42;;;;;;;17.58;74.08;100023.63;5094662;28;20048;-63
2021/07/12 03:35:50;;;;;;;18.33;16.35;;;;;;;17.58;73.89;100024.44;5093929;28;20059;-63
2021/07/12 03:38:19;;;;;;;21.88;16.65;;;;;;;17.51;74.60;100017.84;5095205;28;20052;-63
2021/07/12 03:40:47;;;;;;;21.67;17.30;;;;;;;17.50;74.64;100019.84;5095226;28;20058;-63
2021/07/12 03:43:16;;;;;;;18.25;14.80;;;;;;;17.56;74.39;100021.19;5094973;28;20056;-63
2021/07/12 03:45:53;;;;;;;20.63;14.80;;;;;;;17.56;73.97;100021.19;5094468;28;20056;-63
2021/07/12 03:48:34;;;;;;;22.83;14.95;;;;;;;17.58;73.75;100030.06;5094990;28;20052;-63
2021/07/12 03:51:02;;;;;;;20.15;14.13;;;;;;;17.55;73.88;100033.63;5095374;28;20420;-63
2021/07/12 03:53:31;;;;;;;18.85;13.73;;;;;;;17.59;73.75;100036.50;5095069;28;20484;-63
2021/07/12 03:55:58;;;;;;;17.60;13.52;;;;;;;17.64;73.79;100037.03;5090567;28;20057;-63
2021/07/12 03:58:26;;;;;;;16.00;12.73;;;;;;;17.69;73.52;100037.91;5074428;28;20052;-63
2021/07/12 04:00:54;;;;;;;18.60;13.13;;;;;;;17.76;73.17;100024.75;5092678;28;20063;-63
2021/07/12 04:03:22;;;;;;;23.52;13.10;;;;;;;17.81;72.66;100032.91;5094815;28;20052;-63
2021/07/12 04:05:49;;;;;;;17.35;12.73;;;;;;;17.84;72.19;100018.09;5094099;28;20048;-63
2021/07/12 04:08:17;;;;;;;17.88;12.80;;;;;;;17.87;72.30;100012.91;5094317;28;20059;-63
2021/07/12 04:10:44;;;;;;;16.40;13.27;;;;;;;17.94;72.24;100010.22;5094178;28;20060;-63
2021/07/12 04:13:13;;;;;;;16.17;12.80;;;;;;;17.96;72.46;100013.47;5094884;28;20059;-63
2021/07/12 04:15:41;;;;;;;19.75;13.15;;;;;;;17.96;72.59;100011.47;5093866;28;20076;-63
2021/07/12 04:18:10;;;;;;;16.38;13.20;;;;;;;18.01;72.49;100008.31;5094370;28;20052;-63
2021/07/12 04:20:41;;;;;;;16.60;13.40;;;;;;;18.07;72.59;100003.19;5094221;28;20060;-63
2021/07/12 04:23:10;;;;;;;16.98;14.55;;;;;;;18.14;72.57;100014.59;5094063;28;20056;-63
2021/07/12 04:25:38;;;;;;;18.60;14.95;;;;;;;18.19;72.32;100014.28;5093662;28;20396;-63
2021/07/12 04:28:06;;;;;;;18.30;15.18;;;;;;;18.21;72.32;100013.91;5093966;28;20057;-63
2021/07/12 04:30:34;;;;;;;19.40;16.45;;;;;;;18.29;72.21;100014.81;5094500;28;20504;-63
2021/07/12 04:33:02;;;;;;;18.88;15.63;;;;;;;18.33;72.13;100010.06;5093806;28;20060;-63
2021/07/12 04:35:31;;;;;;;19.95;15.32;;;;;;;18.35;72.37;100008.50;5093049;28;20056;-63
2021/07/12 04:37:58;;;;;;;17.70;15.32;;;;;;;18.40;72.21;99999.72;5094005;28;20066;-63
2021/07/12 04:40:27;;;;;;;19.35;15.15;;;;;;;18.38;72.27;99998.47;5094153;28;20072;-63
2021/07/12 04:42:54;;;;;;;21.05;15.10;;;;;;;18.42;72.30;100002.16;5094217;28;20137;-64
2021/07/12 04:45:25;;;;;;;19.80;15.05;;;;;;;18.40;72.49;100004.53;5093757;28;20056;-64
2021/07/12 04:47:53;;;;;;;17.48;14.88;;;;;;;18.46;72.20;100000.22;5093490;28;20066;-64
2021/07/12 04:50:20;;;;;;;20.77;14.88;;;;;;;18.47;72.31;100001.81;5094302;28;20048;-64
2021/07/12 04:52:49;;;;;;;19.55;15.13;;;;;;;18.55;72.04;99992.28;5093811;28;20075;-63
2021/07/12 04:55:16;;;;;;;21.55;14.88;;;;;;;18.49;72.39;99993.00;5093736;28;20055;-63
2021/07/12 04:57:45;;;;;;;21.33;14.20;;;;;;;18.59;71.95;99990.31;5093852;28;20051;-63
2021/07/12 05:00:14;;;;;;;20.55;14.70;;;;;;;18.71;71.78;99997.75;5093684;28;20082;-63
2021/07/12 05:02:42;;;;;;;18.98;14.00;;;;;;;18.81;71.52;99999.09;5093539;28;20067;-63
2021/07/12 05:05:12;;;;;;;18.77;13.93;;;;;;;18.92;71.42;99990.78;5093582;28;20052;-63
2021/07/12 05:07:40;;;;;;;16.27;14.25;;;;;;;18.99;71.19;99996.53;5093536;28;20048;-63
2021/07/12 05:10:10;;;;;;;15.90;14.20;;;;;;;19.12;70.79;99995.09;5093767;28;20493;-63
2021/07/12 05:12:38;;;;;;;17.35;14.55;;;;;;;19.21;70.52;99994.78;5090144;28;20060;-63
2021/07/12 05:15:07;;;;;;;16.63;14.18;;;;;;;19.37;70.33;99998.22;5085106;28;20063;-63
2021/07/12 05:17:36;;;;;;;15.02;13.52;;;;;;;19.44;70.17;100001.13;5079138;28;20517;-63
2021/07/12 05:20:06;;;;;;;15.85;14.13;;;;;;;19.56;69.61;99997.19;5071472;28;20052;-63
2021/07/12 05:22:33;;;;;;;16.42;13.95;;;;;;;19.73;68.76;99998.63;5089230;28;20450;-63
2021/07/12 05:25:02;;;;;;;17.35;13.40;;;;;;;19.86;68.46;99994.31;5090471;28;20051;-63
2021/07/12 05:27:31;;;;;;;;;;;;;;;19.95;68.21;99990.34;5092455;28;20130;-63
2021/07/12 05:29:58;;;;;;;14.77;13.27;;;;;;;20.06;68.04;99982.78;5082863;28;19920;-63
2021/07/12 05:32:25;;;;;;;17.08;14.32;;;;;;;20.15;67.68;99977.59;5072282;28;20052;-63
2021/07/12 05:34:53;;;;;;;14.50;13.05;;;;;;;20.09;68.46;99984.81;5088944;28;20056;-52
2021/07/12 05:37:21;;;;;;;16.23;13.95;;;;;;;19.74;69.77;99980.47;5092398;28;20056;-53
2021/07/12 05:39:48;;;;;;;18.73;15.13;;;;;;;19.41;71.21;99978.50;5093119;28;20056;-53
2021/07/12 05:42:16;;;;;;;17.05;14.57;;;;;;;19.43;71.10;99974.06;5092840;28;20056;-55
2021/07/12 05:44:44;;;;;;;17.50;14.75;;;;;;;19.53;70.91;99974.56;5092451;28;20060;-53
2021/07/12 05:47:12;;;;;;;16.85;15.10;;;;;;;20.05;68.84;99978.31;5092291;28;20496;-55
2021/07/12 05:49:39;;;;;;;18.73;14.95;;;;;;;20.00;69.50;99975.84;5092540;28;20048;-52
2021/07/12 05:52:07;;;;;;;17.33;15.02;;;;;;;20.21;69.09;99969.56;5090948;28;20060;-52
2021/07/12 05:54:34;;;;;;;15.05;13.45;;;;;;;20.44;68.08;99963.66;5092834;28;20060;-54
2021/07/12 05:57:02;;;;;;;15.55;13.95;;;;;;;20.73;67.09;99961.03;5092164;28;20060;-54
2021/07/12 05:59:29;;;;;;;14.57;13.07;;;;;;;20.88;66.44;99965.56;5093027;28;20511;-54
2021/07/12 06:01:58;;;;;;;16.10;13.35;;;;;;;21.05;66.07;99959.16;5091599;28;20051;-55
2021/07/12 06:04:26;;;;;;;17.40;14.25;;;;;;;21.25;64.78;99962.47;5082549;28;20056;-54
2021/07/12 06:06:53;;;;;;;16.27;12.90;;;;;;;21.38;64.57;99965.75;5072602;28;20068;-55
2021/07/12 06:09:21;;;;;;;18.35;13.85;;;;;;;21.55;64.44;99966.22;5081661;28;20055;-53
2021/07/12 06:11:48;;;;;;;17.02;12.60;;;;;;;21.77;63.93;99973.53;5092946;28;20063;-55
2021/07/12 06:14:15;;;;;;;15.48;13.93;;;;;;;21.72;63.57;99971.09;5092755;28;20071;-54
2021/07/12 06:16:43;;;;;;;14.93;12.95;;;;;;;22.07;62.45;99963.84;5093019;28;20436;-54
2021/07/12 06:19:11;;;;;;;15.57;13.13;;;;;;;22.08;61.84;99965.44;5092809;28;20052;-53
2021/07/12 06:21:39;;;;;;;17.40;13.32;;;;;;;22.31;61.82;99955.75;5092567;28;20510;-55
2021/07/12 06:24:06;;;;;;;15.23;13.57;;;;;;;22.60;60.82;99962.97;5091596;28;20481;-64
2021/07/12 06:26:33;;;;;;;14.40;13.00;;;;;;;22.78;60.72;99970.63;5083686;28;20047;-64
2021/07/12 06:29:01;;;;;;;15.00;13.40;;;;;;;22.94;60.07;99975.88;5083760;28;20052;-65
2021/07/12 06:31:29;;;;;;;16.20;13.25;;;;;;;23.10;59.36;99962.84;5075040;28;20063;-65
2021/07/12 06:33:56;;;;;;;14.02;12.60;;;;;;;23.24;58.70;99955.47;5078101;28;20064;-65
2021/07/12 06:36:25;;;;;;;13.95;12.45;;;;;;;23.40;57.91;99964.31;5078253;28;20056;-65
2021/07/12 06:38:55;;;;;;;13.50;11.88;;;;;;;23.50;57.30;99952.06;5075561;28;20500;-64
2021/07/12 06:41:22;;;;;;;14.23;12.40;;;;;;;23.65;57.68;99949.13;5077644;28;20071;-64
2021/07/12 06:43:51;;;;;;;13.45;11.95;;;;;;;23.81;56.68;99943.78;5089367;28;20469;-64
2021/07/12 06:46:19;;;;;;;13.38;11.48;;;;;;;23.94;56.15;99946.09;5084610;28;20053;-65
2021/07/12 06:48:46;;;;;;;12.35;11.15;;;;;;;23.90;56.68;99941.25;5077719;28;20056;-65
2021/07/12 06:51:13;;;;;;;12.88;11.57;;;;;;;23.97;56.12;99948.91;5080212;28;20059;-65
2021/07/12 06:53:42;;;;;;;12.77;11.48;;;;;;;24.03;55.57;99952.91;5080054;28;20071;-65
2021/07/12 06:56:09;;;;;;;11.70;10.38;;;;;;;24.15;55.21;99959.31;5082623;28;20420;-64
2021/07/12 06:58:36;;;;;;;12.38;11.07;;;;;;;24.26;55.08;99949.47;5084410;28;20392;-64
2021/07/12 07:01:04;;;;;;;12.25;11.00;;;;;;;24.40;54.31;99961.94;5079204;28;20063;-64
2021/07/12 07:03:31;;;;;;;12.05;10.75;;;;;;;24.51;54.52;99951.28;5088478;28;20048;-64
2021/07/12 07:05:59;;;;;;;11.32;9.80;;;;;;;24.67;54.12;99948.69;5079309;28;20598;-64
2021/07/12 07:08:26;;;;;;;11.55;10.43;;;;;;;24.76;54.24;99950.19;5086232;28;20067;-64
2021/07/12 07:10:55;;;;;;;11.05;9.95;;;;;;;24.89;53.54;99949.22;5072791;28;20056;-64
2021/07/12 07:13:22;;;;;;;12.30;10.65;;;;;;;24.98;54.29;99945.06;5081157;28;20408;-64
2021/07/12 07:15:50;;;;;;;11.13;9.93;;;;;;;24.99;53.97;99947.50;5083147;28;20060;-64
2021/07/12 07:18:20;;;;;;;10.98;9.88;;;;;;;25.07;54.59;99946.16;5073323;28;20421;-64
2021/07/12 07:20:47;;;;;;;12.13;10.93;;;;;;;25.23;53.54;99939.06;5082458;28;20068;-64
2021/07/12 07:23:15;;;;;;;10.88;9.85;;;;;;;25.29;51.91;99937.34;5078968;28;20048;-64
2021/07/12 07:25:42;;;;;;;10.48;9.23;;;;;;;25.22;51.89;99935.41;5091081;28;20063;-64
2021/07/12 07:28:11;;;;;;;10.30;9.25;;;;;;;25.37;53.10;99938.88;5073312;28;20056;-64
2021/07/12 07:30:40;;;;;;;10.90;9.40;;;;;;;25.46;52.25;99933.41;5080744;28;20166;-64
2021/07/12 07:33:08;;;;;;;10.23;9.20;;;;;;;25.48;52.77;99933.00;5073448;28;20044;-64
2021/07/12 07:35:35;;;;;;;10.20;9.18;;;;;;;25.59;52.28;99927.13;5092329;28;20489;-64
2021/07/12 07:38:02;;;;;;;10.20;8.40;;;;;;;25.64;50.92;99921.75;5081788;28;20048;-64
2021/07/12 07:40:30;;;;;;;9.43;8.52;;;;;;;25.71;51.29;99923.69;5073445;28;20061;-64
2021/07/12 07:42:58;;;;;;;8.27;7.47;;;;;;;25.76;51.16;99911.78;5084992;28;20134;-64
2021/07/12 07:45:27;;;;;;;8.07;7.28;;;;;;;25.89;49.53;99912.00;5083071;28;20061;-64
2021/07/12 07:47:54;;;;;;;7.93;7.13;;;;;;;26.00;49.30;99912.63;5085298;28;20067;-64
2021/07/12 07:50:22;;;;;;;9.27;7.45;;;;;;;25.83;49.53;99908.81;5093254;28;20519;-65
2021/07/12 07:52:50;;;;;;;9.02;6.63;;;;;;;26.06;48.89;99915.78;5085532;28;20067;-65
2021/07/12 07:55:17;;;;;;;11.32;8.43;;;;;;;26.27;50.11;99903.16;5092874;28;20059;-65
2021/07/12 07:57:44;;;;;;;9.45;8.57;;;;;;;27.02;47.88;99900.88;5073324;28;20063;-65
2021/07/12 08:00:14;;;;;;;7.72;6.78;;;;;;;27.96;45.16;99893.84;5092368;28;20101;-65
2021/07/12 08:02:43;;;;;;;7.47;6.78;;;;;;;28.40;43.30;99902.91;5080572;28;20064;-65
2021/07/12 08:05:11;;;;;;;7.05;6.35;;;;;;;28.78;43.10;99902.25;5072521;28;20064;-65
2021/07/12 08:07:40;;;;;;;7.53;6.68;;;;;;;29.63;41.24;99903.75;5072934;28;20059;-65
2021/07/12 08:10:09;;;;;;;6.28;5.53;;;;;;;30.70;38.38;99905.03;5077180;28;20413;-65
2021/07/12 08:12:37;;;;;;;6.10;5.50;;;;;;;31.34;36.96;99888.19;5071861;28;20048;-65
2021/07/12 08:15:05;;;;;;;5.90;5.30;;;;;;;31.30;36.61;99895.38;5071689;28;20067;-65
2021/07/12 08:17:33;;;;;;;4.70;4.30;;;;;;;31.44;35.27;99897.72;5071465;28;20421;-65
2021/07/12 08:20:01;;;;;;;5.30;4.80;;;;;;;30.54;36.87;99888.78;5088999;28;20060;-65
2021/07/12 08:22:28;;;;;;;5.35;4.85;;;;;;;30.21;37.75;99885.44;5084696;28;20070;-65
2021/07/12 08:24:56;;;;;;;5.40;4.90;;;;;;;30.69;36.09;99886.19;5079638;28;20052;-65
2021/07/12 08:27:23;;;;;;;6.00;4.75;;;;;;;31.70;34.36;99880.19;5078973;28;20056;-65
2021/07/12 08:29:51;;;;;;;5.07;4.57;;;;;;;32.60;34.34;99874.28;5076340;28;20063;-65
2021/07/12 08:32:21;;;;;;;5.72;4.38;;;;;;;32.30;33.03;99873.94;5079617;28;20133;-65
2021/07/12 08:34:48;;;;;;;5.05;4.38;;;;;;;32.29;33.28;99866.56;5084507;28;20059;-65
2021/07/12 08:37:17;;;;;;;4.90;4.50;;;;;;;33.53;32.07;99858.31;5078322;28;20052;-65
2021/07/12 08:39:44;;;;;;;4.75;4.10;;;;;;;34.52;29.73;99856.56;5079977;28;20064;-65
2021/07/12 08:42:13;;;;;;;4.32;3.92;;;;;;;35.47;27.97;99853.78;5071925;28;20056;-65
2021/07/12 08:44:40;;;;;;;4.22;3.75;;;;;;;36.55;27.12;99850.22;5086981;28;20059;-65
2021/07/12 08:47:09;;;;;;;5.65;3.42;;;;;;;37.07;25.68;99861.88;5071175;28;20068;-65
2021/07/12 08:49:37;;;;;;;4.45;3.50;;;;;;;36.52;26.20;99860.75;5071520;28;20052;-65
2021/07/12 08:52:10;;;;;;;3.38;3.08;;;;;;;36.27;25.59;99849.94;5072893;28;20064;-65
2021/07/12 08:54:40;;;;;;;2.95;2.75;;;;;;;36.09;25.72;99848.09;5080758;28;20144;-65
2021/07/12 08:57:08;;;;;;;8.20;2.95;;;;;;;35.67;24.92;99841.44;5076394;28;20070;-66
2021/07/12 08:59:39;;;;;;;3.67;2.72;;;;;;;35.24;25.57;99823.69;5074396;28;20053;-65
2021/07/12 09:02:09;;;;;;;3.17;2.80;;;;;;;35.07;25.94;99834.97;5079126;28;20083;-65
2021/07/12 09:04:40;;;;;;;3.53;2.92;;;;;;;35.22;25.25;99837.06;5078403;28;20048;-65
2021/07/12 09:07:09;;;;;;;3.22;2.97;;;;;;;35.60;24.96;99832.38;5075631;28;20044;-65
2021/07/12 09:09:37;;;;;;;2.60;2.40;;;;;;;36.98;23.13;99821.38;5073050;28;20061;-66
2021/07/12 09:12:19;;;;;;;2.72;2.45;;;;;;;38.27;22.27;99829.38;5071845;28;20064;-66
2021/07/12 09:15:02;;;;;;;3.25;2.95;;;;;;;36.89;22.60;99827.38;5089338;28;20056;-66
2021/07/12 09:17:33;;;;;;;2.60;2.40;;;;;;;38.38;20.98;99829.41;5073375;28;20064;-66
2021/07/12 09:20:01;;;;;;;2.83;2.53;;;;;;;39.62;20.85;99814.16;5079622;28;20497;-66
2021/07/12 09:22:33;;;;;;;2.30;2.10;;;;;;;40.40;19.42;99815.97;5079557;28;20063;-66
2021/07/12 09:25:02;;;;;;;2.75;2.50;;;;;;;41.36;18.44;99803.59;5088837;28;20056;-66
2021/07/12 09:27:33;;;;;;;3.50;2.53;;;;;;;42.31;17.91;99801.69;5084078;28;20059;-66
2021/07/12 09:30:04;;;;;;;3.13;2.35;;;;;;;42.84;16.42;99800.41;5071912;28;20488;-66
2021/07/12 09:32:34;;;;;;;2.17;1.98;;;;;;;42.30;16.56;99782.56;5077221;28;20053;-66
2021/07/12 09:35:06;;;;;;;2.78;2.20;;;;;;;42.28;16.67;99778.59;5089970;28;20070;-66
2021/07/12 09:37:34;;;;;;;3.00;2.45;;;;;;;43.21;16.36;99764.31;5090946;28;20067;-66
2021/07/12 09:40:04;;;;;;;2.67;2.47;;;;;;;43.67;15.33;99768.00;5083069;28;20048;-66
2021/07/12 09:42:34;;;;;;;3.08;2.75;;;;;;;44.14;15.18;99784.09;5089991;28;20083;-66
2021/07/12 09:45:05;;;;;;;2.95;2.50;;;;;;;44.76;14.46;99792.28;5091198;28;20051;-66
2021/07/12 09:47:36;;;;;;;2.75;2.50;;;;;;;44.90;14.98;99795.97;5082424;28;20501;-66
2021/07/12 09:50:08;;;;;;;2.67;2.40;;;;;;;45.00;15.50;99792.53;5079857;28;20063;-66
2021/07/12 09:52:42;;;;;;;2.72;2.30;;;;;;;44.63;14.33;99779.81;5086827;28;20059;-66
2021/07/12 09:55:15;;;;;;;2.35;1.90;;;;;;;43.55;15.87;99782.06;5075653;28;20084;-66
2021/07/12 09:57:44;;;;;;;2.47;2.08;;;;;;;42.81;16.33;99775.16;5077306;28;20056;-66
2021/07/12 10:00:14;;;;;;;2.35;2.15;;;;;;;42.55;16.69;99780.34;5075729;28;20056;-66
2021/07/12 10:02:42;;;;;;;2.85;2.65;;;;;;;42.85;15.98;99779.34;5086014;28;20056;-66
2021/07/12 10:05:09;;;;;;;;;;;;;;;42.66;16.27;99764.72;5080081;28;20060;-66
2021/07/12 10:07:37;;;;;;;3.03;2.83;;;;;;;42.53;16.79;99770.53;5079804;28;19927;-66
2021/07/12 10:10:13;;;;;;;2.90;2.70;;;;;;;42.93;16.16;99756.06;5080803;28;20063;-66
2021/07/12 10:12:41;;;;;;;2.92;2.60;;;;;;;44.34;15.50;99754.03;5087181;28;20059;-66
2021/07/12 10:15:11;;;;;;;2.97;2.60;;;;;;;45.49;13.47;99750.59;5078195;28;20052;-66
2021/07/12 10:17:41;;;;;;;2.80;2.60;;;;;;;46.57;13.27;99740.88;5085047;28;20485;-66
2021/07/12 10:20:09;;;;;;;2.67;2.47;;;;;;;45.95;12.89;99748.72;5075935;28;20804;-66
2021/07/12 10:22:40;;;;;;;2.85;2.30;;;;;;;46.13;12.73;99737.22;5079402;28;20059;-66
2021/07/12 10:25:10;;;;;;;3.60;2.67;;;;;;;44.88;14.06;99745.00;5086466;28;20056;-66
2021/07/12 10:27:48;;;;;;;3.10;2.90;;;;;;;46.26;13.22;99737.03;5088458;28;20067;-66
2021/07/12 10:30:27;;;;;;;2.38;2.15;;;;;;;44.40;14.18;99736.28;5078824;28;20048;-66
2021/07/12 10:32:56;;;;;;;2.47;2.20;;;;;;;43.81;15.45;99745.31;5077343;28;20053;-66
2021/07/12 10:35:52;;;;;;;2.33;2.13;;;;;;;43.93;14.71;99739.97;5071102;28;20067;-66
2021/07/12 10:38:25;;;;;;;2.38;2.00;;;;;;;43.33;15.57;99736.41;5037673;28;20064;-66
2021/07/12 10:40:56;;;;;;;3.03;2.80;;;;;;;43.57;15.18;99735.38;5094453;28;20052;-66
2021/07/12 10:43:34;;;;;;;3.65;2.70;;;;;;;45.60;13.87;99731.84;5093842;28;20048;-66
2021/07/12 10:46:03;;;;;;;2.85;2.47;;;;;;;47.08;12.36;99729.53;5090832;28;20060;-66
2021/07/12 10:48:35;;;;;;;2.50;2.30;;;;;;;48.49;11.03;99727.13;5078028;28;20060;-66
2021/07/12 10:51:16;;;;;;;2.78;2.58;;;;;;;49.48;11.10;99724.72;5087687;28;20048;-66
2021/07/12 10:53:55;;;;;;;1.80;1.60;;;;;;;48.29;11.21;99723.91;5084299;28;20060;-66
2021/07/12 10:56:23;;;;;;;1.85;1.75;;;;;;;46.91;11.91;99722.06;5090220;28;20074;-64
2021/07/12 10:58:52;;;;;;;2.83;2.60;;;;;;;47.27;12.00;99717.34;5094139;28;20142;-64
2021/07/12 11:01:45;;;;;;;2.60;1.80;;;;;;;46.01;13.43;99715.34;5093297;28;20280;-66
2021/07/12 11:04:36;;;;;;;2.38;1.75;;;;;;;45.36;13.16;99717.00;5074601;28;20064;-66
2021/07/12 11:07:06;;;;;;;2.92;2.72;;;;;;;44.77;13.53;99717.47;5081624;28;20067;-66
2021/07/12 11:09:54;;;;;;;2.13;1.80;;;;;;;43.67;13.99;99717.34;5082858;28;20404;-66
2021/07/12 11:12:34;;;;;;;2.20;1.80;;;;;;;42.30;15.39;99721.09;5093530;28;20063;-66
2021/07/12 11:15:24;;;;;;;2.00;1.80;;;;;;;41.43;15.30;99715.28;5090238;28;20377;-66
2021/07/12 11:17:55;;;;;;;2.55;2.35;;;;;;;41.13;16.95;99716.13;5080381;28;20443;-66
2021/07/12 11:20:43;;;;;;;3.10;2.90;;;;;;;42.69;15.95;99719.66;5091810;28;20471;-66
2021/07/12 11:23:30;;;;;;;;;;;;;;;42.62;15.62;99714.47;5074673;28;20084;-66
2021/07/12 11:25:57;;;;;;;2.67;2.38;;;;;;;42.08;16.15;99709.69;5084862;28;19924;-66
2021/07/12 11:28:43;;;;;;;2.85;1.90;;;;;;;41.68;16.70;99707.28;5085625;28;20056;-66
2021/07/12 11:31:40;;;;;;;2.92;2.35;;;;;;;42.75;16.03;99705.72;5085895;28;20449;-66
2021/07/12 11:34:13;;;;;;;;;;;;;;;43.93;15.20;99696.78;5085514;28;20056;-66
2021/07/12 11:36:41;;;;;;;2.10;1.90;;;;;;;43.10;15.24;99706.72;5091668;28;19946;-66